Avoca, Illinois
Current Conditions -  °F | °C
As of 7:35 PM on Wednesday 22 Oct 2014 (Local Time) from KPNT Reporting Station
Clear Clear  
Wind Chill: 38°   Ceiling: Unl
Heat Index: 42°   Visibility: 10mi
Dew Point: 34°   Wind: 6mph
Humidity: 75%   Direction: 110°ESE
Pressure: 30.25"   Gusts: NA
Location:  40.7318°N, 88.524°W
Report Text: KPNT 230035Z AUTO 11005KT 10SM CLR 05/01 A3025 RMK AO2 T00540012
Loading
Personal Weather Stations






























Interactive Weather Map
Tropical Storm Tracking
New forecast layout! Learn more

10-Day Weather Forecast

Advertisements
Track Severe Weather on mobile